VTFIS VAJJ-VOHB

Flight info

Callsign VTFIS
Flight time 1h 24m
Altitude 27000
Route BBB W15 MABTA R458 BBM
Aircraft BE9L/L-SBDFGRY/SB1

Departure

Time 2026-04-14 12:08
Airport Juhu Aerodrome (VAJJ)

Arrival

Time 2026-04-14 13:32
Airport Hubballi Airport (VOHB)
Time Latitude Longitude Altitude Speed Heading
2026-04-14 11:50 19.09629 72.83618 14 ft 0 kts 113°
2026-04-14 12:02 19.09627 72.83635 14 ft 7 kts 61°
2026-04-14 12:02 19.09637 72.83620 14 ft 3 kts 192°
2026-04-14 12:03 19.09584 72.83605 14 ft 10 kts 258°
2026-04-14 12:03 19.09606 72.83515 14 ft 14 kts 294°
2026-04-14 12:03 19.09692 72.83456 13 ft 16 kts 324°
2026-04-14 12:03 19.09731 72.83422 13 ft 0 kts
2026-04-14 12:05 19.09733 72.83422 13 ft 2 kts
2026-04-14 12:05 19.09778 72.83422 13 ft 9 kts 360°
2026-04-14 12:05 19.09849 72.83454 13 ft 15 kts 84°
2026-04-14 12:06 19.09865 72.83589 13 ft 21 kts 80°
2026-04-14 12:06 19.09892 72.83740 13 ft 21 kts 74°
2026-04-14 12:06 19.09900 72.83842 13 ft 0 kts 168°
2026-04-14 12:06 19.09897 72.83775 13 ft 3 kts 258°
2026-04-14 12:07 19.09897 72.83774 13 ft 0 kts 258°
2026-04-14 12:08 19.09895 72.83763 13 ft 7 kts 258°
2026-04-14 12:08 19.09810 72.83276 17 ft 112 kts 263°
2026-04-14 12:08 19.09736 72.82510 765 ft 101 kts 277°
2026-04-14 12:08 19.09819 72.81789 1413 ft 111 kts 286°
2026-04-14 12:09 19.09985 72.80947 1894 ft 137 kts 297°
2026-04-14 12:09 19.10612 72.80066 2438 ft 154 kts 319°
2026-04-14 12:09 19.11547 72.79464 3007 ft 168 kts 339°
2026-04-14 12:09 19.12687 72.79218 3738 ft 169 kts 356°
2026-04-14 12:10 19.13845 72.79340 4447 ft 172 kts 12°
2026-04-14 12:10 19.14964 72.79834 5065 ft 179 kts 31°
2026-04-14 12:10 19.15768 72.80813 5756 ft 180 kts 72°
2026-04-14 12:10 19.15685 72.82054 6506 ft 173 kts 118°
2026-04-14 12:11 19.14866 72.82907 7268 ft 165 kts 143°
2026-04-14 12:11 19.13972 72.83608 7998 ft 161 kts 145°
2026-04-14 12:11 19.13065 72.84289 8621 ft 163 kts 146°
2026-04-14 12:11 19.12118 72.84978 9186 ft 167 kts 147°
2026-04-14 12:12 19.11162 72.85661 9742 ft 170 kts 147°
2026-04-14 12:12 19.10179 72.86354 10302 ft 172 kts 146°
2026-04-14 12:12 19.09175 72.87056 10861 ft 174 kts 146°
2026-04-14 12:12 19.08087 72.87571 11372 ft 176 kts 167°
2026-04-14 12:13 19.06878 72.87889 11893 ft 179 kts 166°
2026-04-14 12:13 19.05675 72.88202 12401 ft 180 kts 166°
2026-04-14 12:13 19.04407 72.88528 12712 ft 193 kts 166°
2026-04-14 12:13 19.03072 72.88869 12972 ft 206 kts 166°
2026-04-14 12:14 19.01629 72.89237 13246 ft 216 kts 167°
2026-04-14 12:14 19.00135 72.89617 13518 ft 223 kts 167°
2026-04-14 12:14 18.98602 72.90006 13782 ft 229 kts 167°
2026-04-14 12:14 18.97024 72.90406 13953 ft 237 kts 167°
2026-04-14 12:15 18.95387 72.90820 14125 ft 243 kts 167°
2026-04-14 12:15 18.93727 72.91241 14298 ft 248 kts 167°
2026-04-14 12:15 18.92029 72.91671 14469 ft 251 kts 167°
2026-04-14 12:15 18.90314 72.92106 14639 ft 254 kts 167°
2026-04-14 12:16 18.88574 72.92546 14805 ft 256 kts 167°
2026-04-14 12:16 18.86830 72.92989 14947 ft 258 kts 167°
2026-04-14 12:16 18.85055 72.93437 15080 ft 259 kts 167°
2026-04-14 12:16 18.83279 72.93887 14923 ft 272 kts 167°
2026-04-14 12:17 18.81372 72.94367 14663 ft 284 kts 167°
2026-04-14 12:17 18.79421 72.94861 14431 ft 292 kts 166°
2026-04-14 12:17 18.77396 72.95373 14180 ft 298 kts 167°
2026-04-14 12:17 18.75374 72.95885 13930 ft 301 kts 167°
2026-04-14 12:18 18.73362 72.96394 13758 ft 286 kts 166°
2026-04-14 12:18 18.71520 72.96860 13697 ft 258 kts 166°
2026-04-14 12:18 18.69831 72.97287 13667 ft 237 kts 166°
2026-04-14 12:18 18.68275 72.97681 13634 ft 221 kts 166°
2026-04-14 12:19 18.66813 72.98050 13607 ft 209 kts 166°
2026-04-14 12:19 18.65428 72.98400 13579 ft 199 kts 166°
2026-04-14 12:19 18.64059 72.98746 13589 ft 211 kts 166°
2026-04-14 12:19 18.62586 72.99118 13726 ft 225 kts 166°
2026-04-14 12:20 18.61004 72.99518 13849 ft 237 kts 166°
2026-04-14 12:20 18.59363 72.99931 13982 ft 245 kts 166°
2026-04-14 12:20 18.57675 73.00357 14091 ft 251 kts 166°
2026-04-14 12:20 18.55967 73.00787 14223 ft 255 kts 166°
2026-04-14 12:21 18.54225 73.01227 14349 ft 258 kts 166°
2026-04-14 12:21 18.52461 73.01672 14495 ft 259 kts 166°
2026-04-14 12:21 18.50706 73.02115 14624 ft 261 kts 166°
2026-04-14 12:21 18.48925 73.02563 14776 ft 261 kts 166°
2026-04-14 12:22 18.47141 73.03013 14905 ft 262 kts 166°
2026-04-14 12:22 18.45364 73.03461 15048 ft 262 kts 166°
2026-04-14 12:22 18.43597 73.03906 15186 ft 263 kts 166°
2026-04-14 12:22 18.41806 73.04356 15320 ft 262 kts 166°
2026-04-14 12:23 18.40028 73.04803 15483 ft 262 kts 166°
2026-04-14 12:23 18.38250 73.05251 15617 ft 262 kts 166°
2026-04-14 12:23 18.36479 73.05698 15774 ft 261 kts 166°
2026-04-14 12:23 18.34685 73.06149 15905 ft 261 kts 166°
2026-04-14 12:24 18.32921 73.06593 16048 ft 261 kts 166°
2026-04-14 12:24 18.31149 73.07039 16190 ft 260 kts 166°
2026-04-14 12:24 18.29387 73.07482 16335 ft 260 kts 166°
2026-04-14 12:24 18.27640 73.07922 16489 ft 260 kts 166°
2026-04-14 12:25 18.25864 73.08368 16643 ft 260 kts 166°
2026-04-14 12:25 18.24105 73.08810 16810 ft 260 kts 166°
2026-04-14 12:25 18.22330 73.09257 16950 ft 260 kts 166°
2026-04-14 12:25 18.20563 73.09700 17083 ft 260 kts 166°
2026-04-14 12:26 18.18810 73.10139 17211 ft 260 kts 166°
2026-04-14 12:26 18.17054 73.10580 17359 ft 260 kts 166°
2026-04-14 12:26 18.15286 73.11025 17513 ft 259 kts 166°
2026-04-14 12:26 18.13524 73.11467 17656 ft 259 kts 166°
2026-04-14 12:27 18.11770 73.11907 17775 ft 258 kts 166°
2026-04-14 12:27 18.10019 73.12347 17941 ft 258 kts 166°
2026-04-14 12:27 18.08273 73.12785 18085 ft 258 kts 166°
2026-04-14 12:27 18.06508 73.13228 18229 ft 258 kts 167°
2026-04-14 12:28 18.04773 73.13663 18361 ft 257 kts 167°
2026-04-14 12:28 18.03005 73.14106 18491 ft 257 kts 167°
2026-04-14 12:28 18.01263 73.14542 18651 ft 258 kts 167°
2026-04-14 12:28 17.99505 73.14983 18816 ft 258 kts 167°
2026-04-14 12:29 17.97770 73.15417 18967 ft 258 kts 167°
2026-04-14 12:29 17.96026 73.15854 19089 ft 258 kts 167°
2026-04-14 12:29 17.94260 73.16296 19246 ft 257 kts 167°
2026-04-14 12:29 17.92526 73.16730 19383 ft 257 kts 167°
2026-04-14 12:30 17.90773 73.17170 19537 ft 257 kts 167°
2026-04-14 12:30 17.89028 73.17607 19671 ft 257 kts 167°
2026-04-14 12:30 17.87271 73.18047 19817 ft 257 kts 167°
2026-04-14 12:30 17.85539 73.18479 19972 ft 257 kts 167°
2026-04-14 12:31 17.83802 73.18914 20110 ft 257 kts 167°
2026-04-14 12:31 17.82050 73.19352 20254 ft 257 kts 167°
2026-04-14 12:31 17.80312 73.19786 20404 ft 257 kts 167°
2026-04-14 12:31 17.78560 73.20225 20554 ft 257 kts 167°
2026-04-14 12:32 17.76829 73.20657 20707 ft 257 kts 167°
2026-04-14 12:32 17.75078 73.21095 20847 ft 257 kts 167°
2026-04-14 12:32 17.73324 73.21533 20986 ft 257 kts 167°
2026-04-14 12:32 17.71621 73.22038 21131 ft 257 kts 158°
2026-04-14 12:33 17.69878 73.22488 21288 ft 255 kts 168°
2026-04-14 12:33 17.68132 73.22877 21439 ft 256 kts 168°
2026-04-14 12:33 17.66407 73.23285 21579 ft 256 kts 167°
2026-04-14 12:33 17.64663 73.23708 21730 ft 256 kts 167°
2026-04-14 12:34 17.62936 73.24133 21878 ft 256 kts 167°
2026-04-14 12:34 17.61192 73.24566 22022 ft 256 kts 167°
2026-04-14 12:34 17.59451 73.24998 22176 ft 256 kts 167°
2026-04-14 12:34 17.57713 73.25432 22319 ft 256 kts 167°
2026-04-14 12:35 17.55974 73.25864 22462 ft 256 kts 167°
2026-04-14 12:35 17.54234 73.26299 22611 ft 256 kts 167°
2026-04-14 12:35 17.52481 73.26735 22766 ft 256 kts 167°
2026-04-14 12:35 17.50743 73.27168 22922 ft 256 kts 167°
2026-04-14 12:36 17.49006 73.27602 23074 ft 255 kts 167°
2026-04-14 12:36 17.47284 73.28030 23220 ft 255 kts 167°
2026-04-14 12:36 17.45552 73.28462 23310 ft 258 kts 167°
2026-04-14 12:36 17.43763 73.28907 23266 ft 264 kts 167°
2026-04-14 12:37 17.41963 73.29356 23198 ft 271 kts 167°
2026-04-14 12:37 17.40092 73.29820 23125 ft 276 kts 167°
2026-04-14 12:37 17.38214 73.30288 23050 ft 280 kts 167°
2026-04-14 12:37 17.36294 73.30765 22978 ft 283 kts 167°
2026-04-14 12:38 17.32423 73.31729 22844 ft 286 kts 167°
2026-04-14 12:38 17.30498 73.32208 22830 ft 286 kts 167°
2026-04-14 12:38 17.28558 73.32691 22826 ft 285 kts 167°
2026-04-14 12:39 17.26621 73.33173 22828 ft 284 kts 167°
2026-04-14 12:39 17.24704 73.33649 22830 ft 283 kts 167°
2026-04-14 12:39 17.22763 73.34131 22832 ft 282 kts 167°
2026-04-14 12:39 17.20856 73.34605 22831 ft 281 kts 167°
2026-04-14 12:40 17.18971 73.35072 22831 ft 279 kts 167°
2026-04-14 12:40 17.17071 73.35545 22828 ft 277 kts 167°
2026-04-14 12:40 17.15205 73.36008 22821 ft 276 kts 166°
2026-04-14 12:40 17.13509 73.36920 22819 ft 274 kts 137°
2026-04-14 12:41 17.12121 73.38272 22819 ft 274 kts 136°
2026-04-14 12:41 17.10725 73.39644 22819 ft 273 kts 136°
2026-04-14 12:41 17.09342 73.41006 22823 ft 273 kts 136°
2026-04-14 12:41 17.07968 73.42361 22831 ft 273 kts 136°
2026-04-14 12:42 17.06580 73.43729 22830 ft 273 kts 136°
2026-04-14 12:42 17.05199 73.45091 22829 ft 273 kts 136°
2026-04-14 12:42 17.03815 73.46455 22828 ft 272 kts 136°
2026-04-14 12:42 17.02427 73.47824 22836 ft 272 kts 135°
2026-04-14 12:43 17.01065 73.49168 22841 ft 272 kts 136°
2026-04-14 12:43 16.99685 73.50528 22853 ft 271 kts 136°
2026-04-14 12:43 16.98309 73.51884 22856 ft 272 kts 136°
2026-04-14 12:43 16.96932 73.53241 22853 ft 272 kts 135°
2026-04-14 12:44 16.95561 73.54591 22855 ft 271 kts 135°
2026-04-14 12:44 16.94184 73.55948 22854 ft 272 kts 135°
2026-04-14 12:44 16.92810 73.57301 22853 ft 272 kts 135°
2026-04-14 12:45 16.90045 73.60024 22855 ft 271 kts 136°
2026-04-14 12:45 16.88660 73.61387 22858 ft 271 kts 136°
2026-04-14 12:45 16.87304 73.62721 22862 ft 271 kts 136°
2026-04-14 12:45 16.85932 73.64070 22870 ft 270 kts 135°
2026-04-14 12:46 16.84540 73.65440 22872 ft 270 kts 136°
2026-04-14 12:46 16.83172 73.66785 22876 ft 270 kts 136°
2026-04-14 12:46 16.81797 73.68136 22882 ft 270 kts 136°
2026-04-14 12:46 16.80448 73.69462 22892 ft 269 kts 136°
2026-04-14 12:47 16.79069 73.70818 22893 ft 269 kts 136°
2026-04-14 12:47 16.77709 73.72154 22898 ft 269 kts 136°
2026-04-14 12:47 16.76332 73.73506 22901 ft 269 kts 136°
2026-04-14 12:47 16.74970 73.74844 22905 ft 269 kts 136°
2026-04-14 12:48 16.73599 73.76191 22904 ft 269 kts 136°
2026-04-14 12:48 16.72246 73.77518 22899 ft 270 kts 136°
2026-04-14 12:48 16.70870 73.78869 22903 ft 269 kts 136°
2026-04-14 12:48 16.69514 73.80200 22905 ft 269 kts 136°
2026-04-14 12:49 16.68149 73.81539 22907 ft 269 kts 136°
2026-04-14 12:49 16.66778 73.82883 22905 ft 269 kts 136°
2026-04-14 12:49 16.65401 73.84234 22903 ft 269 kts 136°
2026-04-14 12:49 16.64047 73.85561 22906 ft 269 kts 136°
2026-04-14 12:50 16.62682 73.86900 22906 ft 269 kts 136°
2026-04-14 12:50 16.59948 73.89578 22907 ft 269 kts 135°
2026-04-14 12:50 16.58581 73.90919 22914 ft 269 kts 136°
2026-04-14 12:51 16.57207 73.92264 22917 ft 268 kts 136°
2026-04-14 12:51 16.55855 73.93589 22922 ft 268 kts 136°
2026-04-14 12:51 16.54493 73.94922 22928 ft 268 kts 136°
2026-04-14 12:51 16.53128 73.96259 22934 ft 268 kts 136°
2026-04-14 12:52 16.51756 73.97601 22939 ft 268 kts 136°
2026-04-14 12:52 16.50406 73.98922 22942 ft 268 kts 136°
2026-04-14 12:52 16.49050 74.00247 22949 ft 268 kts 136°
2026-04-14 12:52 16.47680 74.01587 22954 ft 268 kts 136°
2026-04-14 12:53 16.46316 74.02921 22953 ft 268 kts 136°
2026-04-14 12:53 16.44967 74.04239 22957 ft 267 kts 136°
2026-04-14 12:53 16.43602 74.05574 22957 ft 267 kts 136°
2026-04-14 12:53 16.42244 74.06902 22960 ft 267 kts 136°
2026-04-14 12:54 16.40898 74.08217 22963 ft 267 kts 136°
2026-04-14 12:54 16.39530 74.09554 22965 ft 267 kts 136°
2026-04-14 12:54 16.38177 74.10875 22965 ft 267 kts 136°
2026-04-14 12:54 16.36816 74.12204 22965 ft 268 kts 136°
2026-04-14 12:55 16.35451 74.13536 22968 ft 268 kts 136°
2026-04-14 12:55 16.34099 74.14856 22972 ft 268 kts 136°
2026-04-14 12:55 16.32736 74.16186 22971 ft 268 kts 136°
2026-04-14 12:55 16.31379 74.17510 22973 ft 268 kts 136°
2026-04-14 12:56 16.30009 74.18847 22973 ft 268 kts 136°
2026-04-14 12:56 16.28653 74.20170 22977 ft 268 kts 136°
2026-04-14 12:56 16.27296 74.21493 22980 ft 268 kts 136°
2026-04-14 12:56 16.26838 74.21939 22980 ft 268 kts 136°
2026-04-14 13:02 16.26262 74.22501 22980 ft 268 kts 136°
2026-04-14 13:02 16.24894 74.23835 22981 ft 268 kts 136°
2026-04-14 13:02 16.23528 74.25166 22935 ft 269 kts 136°
2026-04-14 13:02 16.22192 74.26466 22963 ft 268 kts 136°
2026-04-14 13:03 16.20814 74.27810 22957 ft 268 kts 136°
2026-04-14 13:03 16.19465 74.29124 22977 ft 267 kts 136°
2026-04-14 13:03 16.18104 74.30453 22976 ft 267 kts 136°
2026-04-14 13:03 16.16734 74.31785 22980 ft 267 kts 136°
2026-04-14 13:04 16.15389 74.33094 22979 ft 268 kts 136°
2026-04-14 13:04 16.14019 74.34428 22981 ft 268 kts 136°
2026-04-14 13:04 16.12665 74.35745 22982 ft 268 kts 136°
2026-04-14 13:04 16.11287 74.37085 22979 ft 268 kts 136°
2026-04-14 13:05 16.09933 74.38400 22982 ft 268 kts 136°
2026-04-14 13:05 16.08575 74.39741 22930 ft 269 kts 135°
2026-04-14 13:05 16.06868 74.40575 22796 ft 270 kts 161°
2026-04-14 13:05 16.05221 74.41309 22641 ft 278 kts 155°
2026-04-14 13:06 16.03337 74.42273 20962 ft 327 kts 146°
2026-04-14 13:06 16.01559 74.43549 21490 ft 290 kts 141°
2026-04-14 13:06 16.00135 74.44910 21512 ft 285 kts 136°
2026-04-14 13:06 15.98737 74.46506 20455 ft 313 kts 122°
2026-04-14 13:07 15.97823 74.48459 20769 ft 286 kts 109°
2026-04-14 13:07 15.97338 74.50414 20670 ft 283 kts 99°
2026-04-14 13:07 15.96964 74.52504 19965 ft 300 kts 98°
2026-04-14 13:07 15.96925 74.54573 20228 ft 278 kts 82°
2026-04-14 13:08 15.97346 74.56548 19841 ft 286 kts 75°
2026-04-14 13:08 15.97903 74.58560 19552 ft 287 kts 72°
2026-04-14 13:08 15.98587 74.60465 19613 ft 278 kts 67°
2026-04-14 13:08 15.99279 74.62347 19245 ft 285 kts 70°
2026-04-14 13:09 15.99807 74.64337 19135 ft 281 kts 78°
2026-04-14 13:09 16.00180 74.66310 19061 ft 278 kts 78°
2026-04-14 13:09 16.00700 74.68278 18301 ft 295 kts 72°
2026-04-14 13:09 16.01123 74.70300 17817 ft 271 kts 83°
2026-04-14 13:10 16.01312 74.72016 18504 ft 213 kts 81°
2026-04-14 13:10 16.01269 74.73583 17560 ft 233 kts 102°
2026-04-14 13:10 16.00569 74.75059 17101 ft 223 kts 128°
2026-04-14 13:10 15.99337 74.75916 16830 ft 211 kts 161°
2026-04-14 13:11 15.97855 74.75912 15911 ft 235 kts 195°
2026-04-14 13:11 15.96652 74.74812 15392 ft 230 kts 236°
2026-04-14 13:11 15.95795 74.73473 14917 ft 226 kts 237°
2026-04-14 13:11 15.95081 74.71998 14258 ft 229 kts 247°
2026-04-14 13:12 15.94331 74.70583 13870 ft 219 kts 231°
2026-04-14 13:12 15.93094 74.70031 13709 ft 194 kts 182°
2026-04-14 13:12 15.91847 74.70212 13599 ft 161 kts 139°
2026-04-14 13:12 15.91072 74.71104 12628 ft 196 kts 128°
2026-04-14 13:13 15.90640 74.72364 11705 ft 200 kts 78°
2026-04-14 13:13 15.91043 74.73701 11315 ft 184 kts 57°
2026-04-14 13:13 15.91902 74.74602 10942 ft 176 kts 30°
2026-04-14 13:13 15.92980 74.75202 10264 ft 188 kts 42°
2026-04-14 13:14 15.93402 74.76431 9973 ft 170 kts 82°
2026-04-14 13:14 15.93988 74.77350 9593 ft 167 kts 34°
2026-04-14 13:14 15.94867 74.78277 8297 ft 210 kts 66°
2026-04-14 13:14 15.95455 74.79527 8290 ft 172 kts 69°
2026-04-14 13:15 15.95008 74.80545 8152 ft 163 kts 138°
2026-04-14 13:15 15.93938 74.81055 7777 ft 159 kts 141°
2026-04-14 13:15 15.93276 74.81922 7283 ft 164 kts 137°
2026-04-14 13:15 15.92219 74.82432 6852 ft 172 kts 158°
2026-04-14 13:16 15.91102 74.83034 5948 ft 201 kts 149°
2026-04-14 13:16 15.89814 74.83564 5634 ft 181 kts 139°
2026-04-14 13:16 15.88969 74.84478 5113 ft 186 kts 130°
2026-04-14 13:16 15.87935 74.85295 4716 ft 180 kts 144°
2026-04-14 13:17 15.87087 74.86178 4156 ft 187 kts 138°
2026-04-14 13:17 15.86008 74.86737 4108 ft 157 kts 165°
2026-04-14 13:17 15.85201 74.86809 3395 ft 169 kts 162°
2026-04-14 13:17 15.84454 74.87351 3594 ft 99 kts 110°
2026-04-14 13:18 15.84032 74.88042 2352 ft 161 kts 128°
2026-04-14 13:18 15.83308 74.88820 2871 ft 164 kts 133°
2026-04-14 13:18 15.82573 74.89391 3898 ft 118 kts 131°
2026-04-14 13:18 15.81931 74.90187 3655 ft 169 kts 131°
2026-04-14 13:19 15.81052 74.91128 3790 ft 189 kts 126°
2026-04-14 13:19 15.80799 74.92327 4450 ft 164 kts 80°
2026-04-14 13:19 15.80578 74.93430 4965 ft 166 kts 120°
2026-04-14 13:19 15.79688 74.94247 5276 ft 190 kts 144°
2026-04-14 13:20 15.78405 74.94930 5475 ft 210 kts 144°
2026-04-14 13:20 15.77118 74.95641 5899 ft 215 kts 143°
2026-04-14 13:20 15.75892 74.96580 6291 ft 218 kts 139°
2026-04-14 13:20 15.74558 74.97578 5947 ft 254 kts 147°
2026-04-14 13:21 15.73281 74.98624 7017 ft 216 kts 139°
2026-04-14 13:21 15.72046 74.99545 6858 ft 224 kts 140°
2026-04-14 13:21 15.70816 75.00571 6374 ft 221 kts 129°
2026-04-14 13:21 15.69858 75.01631 6659 ft 188 kts 137°
2026-04-14 13:22 15.68779 75.02380 6447 ft 192 kts 146°
2026-04-14 13:22 15.67763 75.03271 6136 ft 193 kts 125°
2026-04-14 13:22 15.66750 75.04265 5736 ft 203 kts 140°
2026-04-14 13:22 15.65748 75.05173 5784 ft 182 kts 120°
2026-04-14 13:23 15.64933 75.06225 5197 ft 208 kts 146°
2026-04-14 13:23 15.63611 75.06825 5843 ft 195 kts 133°
2026-04-14 13:23 15.62981 75.08067 6083 ft 215 kts 125°
2026-04-14 13:23 15.61616 75.08714 6658 ft 211 kts 157°
2026-04-14 13:24 15.61144 75.09650 7953 ft 156 kts 96°
2026-04-14 13:24 15.59155 75.11300 8203 ft 216 kts 129°
2026-04-14 13:24 15.58110 75.12440 7999 ft 217 kts 127°
2026-04-14 13:25 15.57128 75.13660 7742 ft 220 kts 128°
2026-04-14 13:25 15.56249 75.14889 7834 ft 205 kts 135°
2026-04-14 13:26 15.52408 75.16395 7893 ft 202 kts 182°
2026-04-14 13:26 15.50987 75.16318 7823 ft 204 kts 194°
2026-04-14 13:26 15.49840 75.15552 7793 ft 207 kts 221°
2026-04-14 13:26 15.48953 75.14305 7453 ft 220 kts 236°
2026-04-14 13:27 15.47971 75.12992 6896 ft 240 kts 231°
2026-04-14 13:27 15.46801 75.11712 6416 ft 248 kts 226°
2026-04-14 13:27 15.45441 75.10508 5709 ft 261 kts 219°
2026-04-14 13:27 15.44140 75.09323 5844 ft 233 kts 212°
2026-04-14 13:28 15.42661 75.08869 5800 ft 223 kts 179°
2026-04-14 13:28 15.41308 75.09409 5906 ft 202 kts 133°
2026-04-14 13:28 15.40677 75.10601 6072 ft 184 kts 98°
2026-04-14 13:28 15.40654 75.11918 5969 ft 187 kts 80°
2026-04-14 13:29 15.40710 75.13325 5666 ft 202 kts 92°
2026-04-14 13:29 15.40668 75.14833 5240 ft 210 kts 93°
2026-04-14 13:29 15.40399 75.16241 4721 ft 203 kts 104°
2026-04-14 13:29 15.39741 75.17503 4260 ft 195 kts 130°
2026-04-14 13:30 15.38708 75.18241 4052 ft 176 kts 165°
2026-04-14 13:30 15.37684 75.18104 4210 ft 121 kts 228°
2026-04-14 13:30 15.37065 75.17297 3653 ft 171 kts 245°
2026-04-14 13:30 15.36679 75.16129 3441 ft 163 kts 256°
2026-04-14 13:31 15.36627 75.15037 3311 ft 151 kts 275°
2026-04-14 13:31 15.36698 75.14015 2936 ft 128 kts 263°
2026-04-14 13:31 15.36548 75.13205 2559 ft 112 kts 255°
2026-04-14 13:31 15.36563 75.12476 2663 ft 102 kts 284°
2026-04-14 13:32 15.36478 75.11738 2871 ft 123 kts 268°
2026-04-14 13:32 15.36421 75.10962 2494 ft 100 kts 268°
2026-04-14 13:32 15.36427 75.10456 2164 ft 0 kts 233°